Rodanthe, North Carolina
Current Conditions -  °F | °C
As of 6:56 AM on Thursday 29 Jan 2015 (Local Time) from K2DP Reporting Station
Clear Clear  
Wind Chill: 18°   Ceiling: Unl
Heat Index: 24°   Visibility: 10mi
Dew Point: 20°   Wind: 5mph
Humidity: 87%   Direction: 330°NNW
Pressure: 30.35"   Gusts: NA
Location:  35.59°N, 75.47°W
Report Text: K2DP 291156Z AUTO 33004KT 10SM CLR M04/M06 A3035 RMK AO2 SLPNO T10451064 11030 21051 53006
Loading
Personal Weather Stations






























Interactive Weather Map New forecast layout! Learn more

10-Day Weather Forecast

Advertisements
Track Severe Weather on mobile